Nearby METAR Reports

 

KSEE - San Diego/Santee, California, USA
Distance from station: E 4mi, 6km
Updated: 07/21/2018 6:47am
Overcast
Overcast
 Wind from W
Wind: W 5 mph , 7 km/h
Temperature: 70°F , 21°C
Dew Point: 63°F , 17°C
Humidity: 78%
Barometer: 29.97 inHg , 1014.9 hPa
Clouds: Overcast
Visibility: 10 miles , 16 km
Cloud details: Overcast 1500 ft
2018/07/21 13:47 KSEE 211347Z 26004KT 10SM OVC015 21/17 A2997
KMYF - San Diego/Mntgmy, California, USA
Distance from station: W 6mi, 10km
Updated: 07/21/2018 5:53am
Overcast
Overcast
 Wind from SW
Wind: SW 5 mph , 7 km/h
Temperature: 72°F , 22°C
Dew Point: 64°F , 18°C
Humidity: 78%
Barometer: 29.97 inHg , 1014.9 hPa
Clouds: Overcast
Visibility: 10 miles , 16 km
Cloud details: Overcast 1300 ft
2018/07/21 12:53 KMYF 211253Z 23004KT 10SM OVC013 22/18 A2997 RMK AO2 SLP143 T02170178
 
KNKX - Miramar Nas/San, California, USA
Distance from station: WNW 7mi, 11km
Updated: 07/21/2018 5:55am
Overcast
Overcast
 Wind from W
Wind: W 6 mph , 9 km/h
Temperature: 73°F , 23°C
Dew Point: 63°F , 17°C
Humidity: 69%
Barometer: 29.96 inHg , 1014.6 hPa
Clouds: Overcast
Visibility: 10 miles , 16 km
Cloud details: Overcast 1300 ft
2018/07/21 12:55 KNKX 211255Z 28005KT 10SM OVC013 23/17 A2996 RMK AO2 SLP139 T02280172
KSAN - San Diego, California, USA
Distance from station: WSW 11mi, 17km
Updated: 07/21/2018 5:51am
Mostly cloudy
Mostly cloudy
 Wind from calm
Wind: Calm
Temperature: 73°F , 23°C
Dew Point: 64°F , 18°C
Humidity: 74%
Barometer: 29.97 inHg , 1014.9 hPa
Clouds: Mostly cloudy
Visibility: 10 miles , 16 km
Cloud details: Few Clouds 1300 ft
Mostly cloudy 1800 ft
2018/07/21 12:51 KSAN 211251Z 00000KT 10SM FEW013 BKN018 23/18 A2997 RMK AO2 SLP149 T02280178
 
KNZY - North Island Nas, California, USA
Distance from station: SW 13mi, 22km
Updated: 07/21/2018 5:26am
NOT Current
Overcast
Overcast
 Wind from WNW
Wind: WNW 6 mph , 9 km/h
Temperature: 72°F , 22°C
Dew Point: 64°F , 18°C
Humidity: 78%
Barometer: 29.95 inHg , 1014.2 hPa
Clouds: Overcast
Visibility: 10 miles , 16 km
Cloud details: Overcast 1600 ft
2018/07/21 12:26 KNZY 211226Z AUTO 30005KT 10SM OVC016 22/18 A2995 RMK AO2 T02170178
KRNM - Ramona, California, USA
Distance from station: NNE 16mi, 26km
Updated: 07/21/2018 5:53am
Clear
Clear
 Wind from calm
Wind: Calm
Temperature: 64°F , 18°C
Dew Point: 61°F , 16°C
Humidity: 88%
Barometer: 29.99 inHg , 1015.6 hPa
Clouds: Clear
Visibility: 10 miles , 16 km
2018/07/21 12:53 KRNM 211253Z AUTO 00000KT 10SM CLR 18/16 A2999 RMK AO2 SLP138 T01830156
 
KSDM - San Diego/Brown, California, USA
Distance from station: S 16mi, 26km
Updated: 07/21/2018 5:53am
Overcast
Overcast
 Wind from calm
Wind: Calm
Temperature: 70°F , 21°C
Dew Point: 64°F , 18°C
Humidity: 83%
Barometer: 29.97 inHg , 1014.9 hPa
Clouds: Overcast
Visibility: 10 miles , 16 km
Cloud details: Overcast 1100 ft
2018/07/21 12:53 KSDM 211253Z AUTO 00000KT 10SM OVC011 21/18 A2997 RMK AO2 SLP142 T02060183
KNRS - Imperial Beach, California, USA
Distance from station: SSW 18mi, 29km
Updated: 07/21/2018 6:21am
Overcast
Overcast
 Wind from SW
Wind: SW 5 mph , 7 km/h
Barometer: 29.97 inHg , 1014.9 hPa
Clouds: Overcast
Visibility: 10 miles , 16 km
Cloud details: Overcast 1600 ft
2018/07/21 13:21 KNRS 211321Z AUTO 22004KT 10SM OVC016 A2997 RMK AO2 $
 
MMTJ - Tijuana Intl Arp, Mexico
Distance from station: S 20mi, 32km
Updated: 07/21/2018 5:43am
Overcast
Overcast
 Wind from calm
Wind: Calm
Temperature: 68°F , 20°C
Dew Point: 64°F , 18°C
Humidity: 88%
Barometer: 29.99 inHg , 1015.6 hPa
Clouds: Overcast
Visibility: 6 miles , 10 km
Cloud details: Overcast 1000 ft
2018/07/21 12:43 MMTJ 211243Z 00000KT 6SM OVC010 20/18 A2999 RMK 8/5// HZY
KCRQ - Carlsbad, California, USA
Distance from station: NW 26mi, 43km
Updated: 07/21/2018 6:17am
Mostly cloudy
Mostly cloudy
 Wind from W
Wind: W 3 mph , 6 km/h
Temperature: 66°F , 19°C
Dew Point: 64°F , 18°C
Humidity: 94%
Barometer: 29.96 inHg , 1014.6 hPa
Clouds: Mostly cloudy
Visibility: 10 miles , 16 km
Cloud details: Mostly cloudy 1700 ft
2018/07/21 13:17 KCRQ 211317Z AUTO 28003KT 10SM BKN017 19/18 A2996 RMK AO2 T01940178
 
KOKB - Oceanside, California, USA
Distance from station: NW 33mi, 54km
Updated: 07/21/2018 5:52am
Overcast
Overcast
 Wind from calm
Wind: Calm
Temperature: 70°F , 21°C
Dew Point: 63°F , 17°C
Humidity: 78%
Barometer: 29.95 inHg , 1014.2 hPa
Clouds: Overcast
Visibility: 10 miles , 16 km
Cloud details: Overcast 1600 ft
2018/07/21 12:52 KOKB 211252Z AUTO 00000KT 10SM OVC016 21/17 A2995 RMK AO2 SLP142 T02110172
KCZZ - Campo, California, USA
Distance from station: ESE 35mi, 56km
Updated: 07/21/2018 5:52am

 Wind from E
Wind: E 5 mph , 7 km/h
Temperature: 61°F , 16°C
Dew Point: 55°F , 13°C
Humidity: 83%
Barometer: 30.00 inHg , 1015.9 hPa
2018/07/21 12:52 KCZZ 211252Z AUTO 08004KT 16/13 A3000 RMK AO1 SLP125 T01560128
 
KNFG - Camp Pendleton, California, USA
Distance from station: NNW 37mi, 59km
Updated: 07/21/2018 6:25am
Overcast
Overcast
 Wind from calm
Wind: Calm
Temperature: 68°F , 20°C
Dew Point: 63°F , 17°C
Humidity: 83%
Barometer: 29.96 inHg , 1014.6 hPa
Clouds: Overcast
Visibility: 10 miles , 16 km
Cloud details: Overcast 1400 ft
2018/07/21 13:25 KNFG 211325Z AUTO 00000KT 10SM OVC014 20/17 A2996 RMK AO2 T02000172
KRIV - Riverside/March, California, USA
Distance from station: N 74mi, 119km
Updated: 07/21/2018 5:58am
Clear
Clear
 Wind from calm
Wind: Calm
Temperature: 66°F , 19°C
Dew Point: 59°F , 15°C
Humidity: 78%
Barometer: 29.99 inHg , 1015.6 hPa
Clouds: Clear
Visibility: 10 miles , 16 km
2018/07/21 12:58 KRIV 211258Z AUTO 00000KT 10SM CLR 19/15 A2999 RMK AO2 SLP143 T01850150
 
KTRM - Thermal/Palm Spg, California, USA
Distance from station: NE 75mi, 121km
Updated: 07/21/2018 5:52am
Clear
Clear
 Wind from NW
Wind: NW 7 mph , 11 km/h
Temperature: 88°F , 31°C
Dew Point: 59°F , 15°C
Humidity: 38%
Barometer: 29.78 inHg , 1008.5 hPa
Clouds: Clear
Visibility: 10 miles , 16 km
2018/07/21 12:52 KTRM 211252Z AUTO 32006KT 10SM CLR 31/15 A2978 RMK AO2 SLP087 T03110150
KPSP - Palm Springs, California, USA
Distance from station: NNE 76mi, 122km
Updated: 07/21/2018 5:53am
Clear
Clear
 Wind from SE
Wind: SE 5 mph , 7 km/h
Temperature: 84°F , 29°C
Heat Index: 84°F , 29°C
Dew Point: 61°F , 16°C
Humidity: 45%
Barometer: 29.84 inHg , 1010.5 hPa
Clouds: Clear
Visibility: 10 miles , 16 km
2018/07/21 12:53 KPSP 211253Z 13004KT 10SM CLR 29/16 A2984 RMK AO2 SLP099 T02940156
 
KSNA - Costa Mesa, California, USA
Distance from station: NW 76mi, 123km
Updated: 07/21/2018 5:53am
Few Clouds
Few Clouds
 Wind from W
Wind: W 3 mph , 6 km/h
Temperature: 70°F , 21°C
Dew Point: 63°F , 17°C
Humidity: 78%
Barometer: 29.96 inHg , 1014.6 hPa
Clouds: Few Clouds
Visibility: 10 miles , 16 km
Cloud details: Few Clouds 3500 ft
Few Clouds 25000 ft
2018/07/21 12:53 KSNA 211253Z 26003KT 10SM FEW035 FEW250 21/17 A2996 RMK AO2 SLP144 T02060167
KNJK - El Centro Naf, California, USA
Distance from station: E 79mi, 127km
Updated: 07/21/2018 5:56am
Clear
Clear
 Wind from S
Wind: S 6 mph , 9 km/h
Temperature: 82°F , 28°C
Heat Index: 84°F , 29°C
Dew Point: 66°F , 19°C
Humidity: 58%
Barometer: 29.81 inHg , 1009.5 hPa
Clouds: Clear
Visibility: 10 miles , 16 km
2018/07/21 12:56 KNJK 211256Z AUTO 17005KT 10SM CLR 28/19 A2981 RMK AO2 SLP109 T02780189 $
 
KAJO - Corona Muni, California, USA
Distance from station: NNW 82mi, 132km
Updated: 07/21/2018 5:56am
Mist, Clear
Mist, Clear
 Wind from calm
Wind: Calm
Temperature: 64°F , 18°C
Dew Point: 61°F , 16°C
Humidity: 88%
Barometer: 29.98 inHg , 1015.2 hPa
Summary: Mist
Clouds: Clear
Visibility: 5 miles , 8 km
2018/07/21 12:56 KAJO 211256Z AUTO 00000KT 5SM BR CLR 18/16 A2998 RMK AO2 SLP155 T01780156 $